createdAt,value
2024-04-26T00:00:06.463Z,5.31
2024-04-26T00:01:06.478Z,5.32
2024-04-26T00:02:06.500Z,5.26
2024-04-26T00:03:06.725Z,5.21
2024-04-26T00:04:06.543Z,5.28
2024-04-26T00:05:06.620Z,5.06
2024-04-26T00:06:06.617Z,5.24
2024-04-26T00:07:06.623Z,5.19
2024-04-26T00:08:06.659Z,5.28
2024-04-26T00:09:06.684Z,5.03
2024-04-26T00:10:06.721Z,5.06
2024-04-26T00:11:06.705Z,5.24
2024-04-26T00:12:06.835Z,5.37
2024-04-26T00:13:06.752Z,5.13
2024-04-26T00:14:06.766Z,5.19
2024-04-26T00:15:06.885Z,5.08
2024-04-26T00:16:06.859Z,5.31
2024-04-26T00:17:06.875Z,5.17
2024-04-26T00:18:06.945Z,5.23
2024-04-26T00:19:06.929Z,4.94
2024-04-26T00:20:06.947Z,5.12
2024-04-26T00:21:06.954Z,4.97
2024-04-26T00:22:06.977Z,5.04
2024-04-26T00:23:06.992Z,5.05
2024-04-26T00:24:07.023Z,5.07
2024-04-26T00:25:07.028Z,5.21
2024-04-26T00:26:07.045Z,5.01
2024-04-26T00:27:07.220Z,5.08
2024-04-26T00:28:07.082Z,4.93
2024-04-26T00:29:07.097Z,5.05
2024-04-26T00:30:07.163Z,5.00
2024-04-26T00:31:07.127Z,4.88
2024-04-26T00:32:07.186Z,4.86
2024-04-26T00:33:07.361Z,4.87
2024-04-26T00:34:07.282Z,5.21
2024-04-26T00:35:07.313Z,5.00
2024-04-26T00:36:07.377Z,4.91
2024-04-26T00:37:07.348Z,4.94
2024-04-26T00:38:07.392Z,4.87
2024-04-26T00:39:07.403Z,5.00
2024-04-26T00:40:07.422Z,4.82
2024-04-26T00:41:07.451Z,4.82
2024-04-26T00:42:07.462Z,4.85
2024-04-26T00:43:07.517Z,4.92
2024-04-26T00:44:07.500Z,4.86
2024-04-26T00:45:07.549Z,4.83
2024-04-26T00:46:07.537Z,4.92
2024-04-26T00:47:07.574Z,4.79
2024-04-26T00:48:07.730Z,4.78
2024-04-26T00:49:07.752Z,4.91
2024-04-26T00:50:07.637Z,4.62
2024-04-26T00:51:07.650Z,4.84
2024-04-26T00:52:07.752Z,4.84
2024-04-26T00:53:07.757Z,4.98
2024-04-26T00:54:07.776Z,4.67
2024-04-26T00:55:07.817Z,4.80
2024-04-26T00:56:07.830Z,4.77
2024-04-26T00:57:07.857Z,4.84
2024-04-26T00:58:07.885Z,4.56
2024-04-26T00:59:07.918Z,4.67
2024-04-26T01:00:07.974Z,4.67
2024-04-26T01:01:07.977Z,4.56
2024-04-26T01:02:08.004Z,4.57
2024-04-26T01:03:08.052Z,4.80
2024-04-26T01:04:08.103Z,4.74
2024-04-26T01:05:08.083Z,4.62
2024-04-26T01:06:08.117Z,4.42
2024-04-26T01:07:08.128Z,4.45
2024-04-26T01:08:10.799Z,4.57
2024-04-26T01:09:08.170Z,4.57
2024-04-26T01:10:08.182Z,4.58
2024-04-26T01:11:08.206Z,4.68
2024-04-26T01:12:08.275Z,4.62
2024-04-26T01:13:08.207Z,4.87
2024-04-26T01:14:08.181Z,4.49
2024-04-26T01:15:08.187Z,4.69
2024-04-26T01:16:08.195Z,4.63
2024-04-26T01:17:08.189Z,4.43
2024-04-26T01:18:08.321Z,4.43
2024-04-26T01:19:08.228Z,4.46
2024-04-26T01:20:08.191Z,4.39
2024-04-26T01:21:08.187Z,4.64
2024-04-26T01:22:08.187Z,4.48
2024-04-26T01:23:08.193Z,4.35
2024-04-26T01:24:08.188Z,4.43
2024-04-26T01:25:08.197Z,4.63
2024-04-26T01:26:08.184Z,4.41
2024-04-26T01:27:08.196Z,4.47
2024-04-26T01:28:08.199Z,4.49
2024-04-26T01:29:08.200Z,4.37
2024-04-26T01:30:08.194Z,4.35
2024-04-26T01:31:08.195Z,4.25
2024-04-26T01:32:08.231Z,4.38
2024-04-26T01:33:08.282Z,4.39
2024-04-26T01:34:08.198Z,4.36
2024-04-26T01:35:08.199Z,4.35
2024-04-26T01:36:08.291Z,4.23
2024-04-26T01:37:08.206Z,4.37
2024-04-26T01:38:08.212Z,4.37
2024-04-26T01:39:08.231Z,4.33
2024-04-26T01:40:08.205Z,4.36
2024-04-26T01:41:08.211Z,4.50
2024-04-26T01:42:09.161Z,4.60
2024-04-26T01:43:08.231Z,4.20
2024-04-26T01:44:08.216Z,4.31
2024-04-26T01:45:08.234Z,4.30
2024-04-26T01:46:08.278Z,4.42
2024-04-26T01:47:08.262Z,4.48
2024-04-26T01:48:08.338Z,4.59
2024-04-26T01:49:08.297Z,4.44
2024-04-26T01:50:08.315Z,4.22
2024-04-26T01:51:08.407Z,4.18
2024-04-26T01:52:08.375Z,4.29
2024-04-26T01:53:08.403Z,4.33
2024-04-26T01:54:08.447Z,4.27
2024-04-26T01:55:08.443Z,4.31
2024-04-26T01:56:08.470Z,4.27
2024-04-26T01:57:08.554Z,3.97
2024-04-26T01:58:08.547Z,4.20
2024-04-26T01:59:08.561Z,4.25
2024-04-26T02:00:08.644Z,4.24
2024-04-26T02:01:08.700Z,4.31
2024-04-26T02:02:08.665Z,4.14
2024-04-26T02:03:08.808Z,4.13
2024-04-26T02:04:08.836Z,4.29
2024-04-26T02:05:08.754Z,4.09
2024-04-26T02:06:08.896Z,4.08
2024-04-26T02:07:08.803Z,3.98
2024-04-26T02:08:08.847Z,4.17
2024-04-26T02:09:08.947Z,4.13
2024-04-26T02:10:08.891Z,3.90
2024-04-26T02:11:08.940Z,4.02
2024-04-26T02:12:08.971Z,4.08
2024-04-26T02:13:08.987Z,3.96
2024-04-26T02:14:09.003Z,4.25
2024-04-26T02:15:09.070Z,3.95
2024-04-26T02:16:09.070Z,4.03
2024-04-26T02:17:09.185Z,4.13
2024-04-26T02:18:09.279Z,4.00
2024-04-26T02:19:09.230Z,4.02
2024-04-26T02:20:09.210Z,3.96
2024-04-26T02:21:09.325Z,4.14
2024-04-26T02:22:09.270Z,3.83
2024-04-26T02:23:09.303Z,3.99
2024-04-26T02:24:09.372Z,4.12
2024-04-26T02:25:09.380Z,3.95
2024-04-26T02:26:09.402Z,4.02
2024-04-26T02:27:09.504Z,3.91
2024-04-26T02:28:09.472Z,4.20
2024-04-26T02:29:09.502Z,4.06
2024-04-26T02:30:09.732Z,3.85
2024-04-26T02:31:09.567Z,3.94
2024-04-26T02:32:09.649Z,3.74
2024-04-26T02:33:09.763Z,3.89
2024-04-26T02:34:09.784Z,3.84
2024-04-26T02:35:09.687Z,3.84
2024-04-26T02:36:09.820Z,4.00
2024-04-26T02:37:09.760Z,3.81
2024-04-26T02:38:09.779Z,3.83
2024-04-26T02:39:09.890Z,3.88
2024-04-26T02:40:09.846Z,4.01
2024-04-26T02:41:09.872Z,3.77
2024-04-26T02:42:09.948Z,3.76
2024-04-26T02:43:09.944Z,3.79
2024-04-26T02:44:09.985Z,3.98
2024-04-26T02:45:10.056Z,3.78
2024-04-26T02:46:10.028Z,3.77
2024-04-26T02:47:10.145Z,3.90
2024-04-26T02:48:10.185Z,3.92
2024-04-26T02:49:10.115Z,3.95
2024-04-26T02:50:10.143Z,3.76
2024-04-26T02:51:10.217Z,3.96
2024-04-26T02:52:10.172Z,3.70
2024-04-26T02:53:10.230Z,3.78
2024-04-26T02:54:10.360Z,3.85
2024-04-26T02:55:10.257Z,3.96
2024-04-26T02:56:10.304Z,3.59
2024-04-26T02:57:10.368Z,3.68
2024-04-26T02:58:10.350Z,3.70
2024-04-26T02:59:10.382Z,3.87
2024-04-26T03:00:10.452Z,3.55
2024-04-26T03:01:10.485Z,3.69
2024-04-26T03:02:10.509Z,3.56
2024-04-26T03:03:10.615Z,3.48
2024-04-26T03:04:10.673Z,3.63
2024-04-26T03:05:10.553Z,3.55
2024-04-26T03:06:10.576Z,3.68
2024-04-26T03:07:10.573Z,3.56
2024-04-26T03:08:10.587Z,3.45
2024-04-26T03:09:10.829Z,3.46
2024-04-26T03:10:10.621Z,3.57
2024-04-26T03:11:10.700Z,3.56
2024-04-26T03:12:10.715Z,3.42
2024-04-26T03:13:10.690Z,3.41
2024-04-26T03:14:10.714Z,3.44
2024-04-26T03:15:10.837Z,3.41
2024-04-26T03:16:10.854Z,3.47
2024-04-26T03:17:10.984Z,3.47
2024-04-26T03:18:10.984Z,3.35
2024-04-26T03:19:11.044Z,3.47
2024-04-26T03:20:11.050Z,3.52
2024-04-26T03:21:11.186Z,3.49
2024-04-26T03:22:11.192Z,3.42
2024-04-26T03:23:11.268Z,3.46
2024-04-26T03:24:11.401Z,3.39
2024-04-26T03:25:11.408Z,3.46
2024-04-26T03:26:11.472Z,3.43
2024-04-26T03:27:11.594Z,3.47
2024-04-26T03:28:11.607Z,3.45
2024-04-26T03:29:11.660Z,3.45
2024-04-26T03:30:11.756Z,3.51
2024-04-26T03:31:11.793Z,3.41
2024-04-26T03:32:11.860Z,3.43
2024-04-26T03:33:11.968Z,3.47
2024-04-26T03:34:11.994Z,3.55
2024-04-26T03:35:12.055Z,3.45
2024-04-26T03:36:13.398Z,3.43
2024-04-26T03:37:12.346Z,3.40
2024-04-26T03:38:12.402Z,3.36
2024-04-26T03:39:12.527Z,3.45
2024-04-26T03:40:12.512Z,3.38
2024-04-26T03:41:12.600Z,3.38
2024-04-26T03:42:12.681Z,3.38
2024-04-26T03:43:12.661Z,3.40
2024-04-26T03:44:12.732Z,3.43
2024-04-26T03:45:12.814Z,3.33
2024-04-26T03:46:12.825Z,3.38
2024-04-26T03:47:12.852Z,3.32
2024-04-26T03:48:13.091Z,3.34
2024-04-26T03:49:13.291Z,3.41
2024-04-26T03:50:13.004Z,3.34
2024-04-26T03:51:13.112Z,3.41
2024-04-26T03:52:13.099Z,3.31
2024-04-26T03:53:13.159Z,3.38
2024-04-26T03:54:13.249Z,3.36
2024-04-26T03:55:13.255Z,3.36
2024-04-26T03:56:13.288Z,3.33
2024-04-26T03:57:13.427Z,3.36
2024-04-26T03:58:13.410Z,3.30
2024-04-26T03:59:13.435Z,3.25
2024-04-26T04:00:13.530Z,3.28
2024-04-26T04:01:13.559Z,3.35
2024-04-26T04:02:13.592Z,3.28
2024-04-26T04:03:13.751Z,3.25
2024-04-26T04:04:13.804Z,3.24
2024-04-26T04:05:13.701Z,3.29
2024-04-26T04:06:13.797Z,3.30
2024-04-26T04:07:13.805Z,3.28
2024-04-26T04:08:13.862Z,3.28
2024-04-26T04:09:14.005Z,3.27
2024-04-26T04:10:13.919Z,3.29
2024-04-26T04:11:13.958Z,3.17
2024-04-26T04:12:15.725Z,3.23
2024-04-26T04:13:14.041Z,3.28
2024-04-26T04:14:14.077Z,3.22
2024-04-26T04:15:21.303Z,0.50
2024-04-26T04:16:21.233Z,0.50
2024-04-26T04:17:21.276Z,0.50
2024-04-26T04:18:21.391Z,0.50
2024-04-26T04:19:21.295Z,0.50
2024-04-26T04:20:21.255Z,0.51
2024-04-26T04:21:21.229Z,0.51
2024-04-26T04:22:21.239Z,0.51
2024-04-26T04:23:21.249Z,0.50
2024-04-26T04:24:21.236Z,0.52
2024-04-26T04:25:21.239Z,0.52
2024-04-26T04:26:21.229Z,0.52
2024-04-26T04:27:21.277Z,0.52
2024-04-26T04:28:21.241Z,0.51
2024-04-26T04:29:21.243Z,0.51
2024-04-26T04:30:21.244Z,0.51
2024-04-26T04:31:28.422Z,0.50
2024-04-26T04:32:28.672Z,0.50
2024-04-26T04:33:28.514Z,0.50
2024-04-26T04:34:28.567Z,0.50
2024-04-26T04:35:28.444Z,0.50
2024-04-26T04:36:28.427Z,0.51
2024-04-26T04:37:28.420Z,0.50
2024-04-26T04:38:28.461Z,0.51
2024-04-26T04:39:29.005Z,0.51
2024-04-26T04:40:28.421Z,0.51
2024-04-26T04:41:28.492Z,0.51
2024-04-26T04:42:28.445Z,0.52
2024-04-26T04:43:28.436Z,0.51
2024-04-26T04:44:28.504Z,0.52
2024-04-26T04:45:28.450Z,0.51
2024-04-26T04:46:28.432Z,0.51
2024-04-26T04:47:28.529Z,0.51
2024-04-26T04:48:28.527Z,0.51
2024-04-26T04:49:28.441Z,0.50
2024-04-26T04:50:28.472Z,0.51
2024-04-26T04:51:28.445Z,0.52
2024-04-26T04:52:28.473Z,0.52
2024-04-26T04:53:28.502Z,0.50
2024-04-26T04:54:28.473Z,0.51
2024-04-26T04:55:28.490Z,0.51
2024-04-26T04:56:28.482Z,0.50
2024-04-26T04:57:28.463Z,0.52
2024-04-26T04:58:28.494Z,0.50
2024-04-26T04:59:28.520Z,0.51
2024-04-26T05:00:28.466Z,0.52
2024-04-26T05:01:28.579Z,0.51
2024-04-26T05:02:28.556Z,0.51
2024-04-26T05:03:28.548Z,0.51
2024-04-26T05:04:28.525Z,0.51
2024-04-26T05:05:28.533Z,0.51
2024-04-26T05:06:28.488Z,0.50
2024-04-26T05:07:28.875Z,0.51
2024-04-26T05:08:28.542Z,0.52
2024-04-26T05:09:28.552Z,0.51
2024-04-26T05:10:28.610Z,0.51
2024-04-26T05:11:28.775Z,0.50
2024-04-26T05:12:28.790Z,0.51
2024-04-26T05:13:28.751Z,0.51
2024-04-26T05:14:28.892Z,0.50
2024-04-26T05:15:28.840Z,0.50
2024-04-26T05:16:28.896Z,0.51
2024-04-26T05:17:29.058Z,0.50
2024-04-26T05:18:29.226Z,0.50
2024-04-26T05:19:29.099Z,0.51
2024-04-26T05:20:29.147Z,0.49
2024-04-26T05:21:29.152Z,0.51
2024-04-26T05:22:29.214Z,0.50
2024-04-26T05:23:29.329Z,0.50
2024-04-26T05:24:30.971Z,0.50
2024-04-26T05:25:29.327Z,0.50
2024-04-26T05:26:29.398Z,0.50
2024-04-26T05:27:29.335Z,0.50
2024-04-26T05:28:29.342Z,0.50
2024-04-26T05:29:29.391Z,0.50
2024-04-26T05:30:29.347Z,0.50
2024-04-26T05:31:29.332Z,0.51
2024-04-26T05:32:29.460Z,0.51
2024-04-26T05:33:29.542Z,0.52
2024-04-26T05:34:29.433Z,0.55
2024-04-26T05:35:29.369Z,0.56
2024-04-26T05:36:29.341Z,0.57
2024-04-26T05:37:29.339Z,0.60
2024-04-26T05:38:29.377Z,0.62
2024-04-26T05:39:29.351Z,0.63
2024-04-26T05:40:29.345Z,0.67
2024-04-26T05:41:29.403Z,0.68
2024-04-26T05:42:29.361Z,0.70
2024-04-26T05:43:31.102Z,0.72
2024-04-26T05:44:29.507Z,0.74
2024-04-26T05:45:29.527Z,0.75
2024-04-26T05:46:29.580Z,0.75
2024-04-26T05:47:29.855Z,0.77
2024-04-26T05:48:29.789Z,0.79
2024-04-26T05:49:29.849Z,0.81
2024-04-26T05:50:29.789Z,0.80
2024-04-26T05:51:29.819Z,0.83
2024-04-26T05:52:29.885Z,0.86
2024-04-26T05:53:29.992Z,0.87
2024-04-26T05:54:29.964Z,0.87
2024-04-26T05:55:29.991Z,0.90
2024-04-26T05:56:30.074Z,0.90
2024-04-26T05:57:30.074Z,0.94
2024-04-26T05:58:30.101Z,0.96
2024-04-26T05:59:30.140Z,0.94
2024-04-26T06:00:30.219Z,0.97
2024-04-26T06:01:30.171Z,1.01
2024-04-26T06:02:30.255Z,0.99
2024-04-26T06:03:30.388Z,1.02
2024-04-26T06:04:30.328Z,1.07
2024-04-26T06:05:30.319Z,1.05
2024-04-26T06:06:30.287Z,1.08
2024-04-26T06:07:30.308Z,1.13
2024-04-26T06:08:30.485Z,1.15
2024-04-26T06:09:30.322Z,1.21
2024-04-26T06:10:30.450Z,1.22
2024-04-26T06:11:30.429Z,1.23
2024-04-26T06:12:30.539Z,1.27
2024-04-26T06:13:33.451Z,1.30
2024-04-26T06:14:30.463Z,1.31
2024-04-26T06:15:30.411Z,1.33
2024-04-26T06:16:30.423Z,1.37
2024-04-26T06:17:30.569Z,1.37
2024-04-26T06:18:30.587Z,1.41
2024-04-26T06:19:30.499Z,1.42
2024-04-26T06:20:30.490Z,1.42
2024-04-26T06:21:30.470Z,1.41
2024-04-26T06:22:30.417Z,1.45
2024-04-26T06:23:30.464Z,1.46
2024-04-26T06:24:30.437Z,1.48
2024-04-26T06:25:30.425Z,1.51
2024-04-26T06:26:30.468Z,1.52
2024-04-26T06:27:30.434Z,1.55
2024-04-26T06:28:30.425Z,1.53
2024-04-26T06:29:30.481Z,1.50
2024-04-26T06:30:31.063Z,1.50
2024-04-26T06:31:30.464Z,1.46
2024-04-26T06:32:30.715Z,1.39
2024-04-26T06:33:30.632Z,1.34
2024-04-26T06:34:31.136Z,1.27
2024-04-26T06:35:30.506Z,1.21
2024-04-26T06:36:30.439Z,1.14
2024-04-26T06:37:30.449Z,1.07
2024-04-26T06:38:30.460Z,0.98
2024-04-26T06:39:30.459Z,0.94
2024-04-26T06:40:31.065Z,0.89
2024-04-26T06:41:30.473Z,0.84
2024-04-26T06:42:30.448Z,0.76
2024-04-26T06:43:31.061Z,0.72
2024-04-26T06:44:31.139Z,0.69
2024-04-26T06:45:30.452Z,0.63
2024-04-26T06:46:30.464Z,0.61
2024-04-26T06:47:30.603Z,0.56
2024-04-26T06:48:30.690Z,0.52
2024-04-26T06:49:30.596Z,0.50
2024-04-26T06:50:30.544Z,0.50
2024-04-26T06:51:30.464Z,0.49
2024-04-26T06:52:30.472Z,0.50
2024-04-26T06:53:30.516Z,0.50
2024-04-26T06:54:30.479Z,0.51
2024-04-26T06:55:30.461Z,0.50
2024-04-26T06:56:30.499Z,0.50
2024-04-26T06:57:30.468Z,0.50
2024-04-26T06:58:30.484Z,0.51
2024-04-26T06:59:30.551Z,0.50
2024-04-26T07:00:31.034Z,0.51
2024-04-26T07:01:30.737Z,0.51
2024-04-26T07:02:32.151Z,0.51
2024-04-26T07:03:31.206Z,0.51
2024-04-26T07:04:31.143Z,0.51
2024-04-26T07:05:30.623Z,0.52
2024-04-26T07:06:30.529Z,0.50
2024-04-26T07:07:31.077Z,0.51
2024-04-26T07:08:31.661Z,0.50
2024-04-26T07:09:30.539Z,0.51
2024-04-26T07:10:30.535Z,0.51
2024-04-26T07:11:30.630Z,0.51
2024-04-26T07:12:30.565Z,0.51
2024-04-26T07:13:30.651Z,0.52
2024-04-26T07:14:30.611Z,0.50
2024-04-26T07:15:30.592Z,0.50
2024-04-26T07:16:30.643Z,0.52
2024-04-26T07:17:30.788Z,0.50
2024-04-26T07:18:30.765Z,0.51
2024-04-26T07:19:30.760Z,0.51
2024-04-26T07:20:30.756Z,0.50
2024-04-26T07:21:30.712Z,0.51
2024-04-26T07:22:30.726Z,0.52
2024-04-26T07:23:30.809Z,0.50
2024-04-26T07:24:30.751Z,0.51
2024-04-26T07:25:30.851Z,0.51
2024-04-26T07:26:30.902Z,0.50
2024-04-26T07:27:30.804Z,0.50
2024-04-26T07:28:30.801Z,0.51
2024-04-26T07:29:30.832Z,0.50
2024-04-26T07:30:30.917Z,0.52
2024-04-26T07:31:30.820Z,0.52
2024-04-26T07:32:31.017Z,0.51
2024-04-26T07:33:31.056Z,0.50
2024-04-26T07:34:30.872Z,0.52
2024-04-26T07:35:31.007Z,0.51
2024-04-26T07:36:30.869Z,0.50
2024-04-26T07:37:30.880Z,0.52
2024-04-26T07:38:30.921Z,0.51
2024-04-26T07:39:30.915Z,0.51
2024-04-26T07:40:30.943Z,0.52
2024-04-26T07:41:31.004Z,0.51
2024-04-26T07:42:31.034Z,0.52
2024-04-26T07:43:31.127Z,0.51
2024-04-26T07:44:31.210Z,0.50
2024-04-26T07:45:31.231Z,0.51
2024-04-26T07:46:31.322Z,0.51
2024-04-26T07:47:31.492Z,0.51
2024-04-26T07:48:31.524Z,0.51
2024-04-26T07:49:31.657Z,0.51
2024-04-26T07:50:32.520Z,0.50
2024-04-26T07:51:31.529Z,0.49
2024-04-26T07:52:31.507Z,0.49
2024-04-26T07:53:31.545Z,0.49
2024-04-26T07:54:31.510Z,0.46
2024-04-26T07:55:31.498Z,0.50
2024-04-26T07:56:31.570Z,0.50
2024-04-26T07:57:31.516Z,0.50
2024-04-26T07:58:31.584Z,0.51
2024-04-26T07:59:31.669Z,0.50
2024-04-26T08:00:31.829Z,0.51
2024-04-26T08:01:31.760Z,0.50
2024-04-26T08:02:31.873Z,0.50
2024-04-26T08:03:31.960Z,0.51
2024-04-26T08:04:31.991Z,0.52
2024-04-26T08:05:32.074Z,0.51
2024-04-26T08:06:32.100Z,0.53
2024-04-26T08:07:32.063Z,0.51
2024-04-26T08:08:32.203Z,0.50
2024-04-26T08:09:32.130Z,0.51
2024-04-26T08:10:32.167Z,0.51
2024-04-26T08:11:32.252Z,0.50
2024-04-26T08:12:32.314Z,0.50
2024-04-26T08:13:32.276Z,0.51
2024-04-26T08:14:32.347Z,0.42
2024-04-26T08:15:32.326Z,0.44
2024-04-26T08:16:32.350Z,0.52
2024-04-26T08:17:32.520Z,0.55
2024-04-26T08:18:32.416Z,0.68
2024-04-26T08:19:32.402Z,0.88
2024-04-26T08:20:32.469Z,1.14
2024-04-26T08:21:32.415Z,1.47
2024-04-26T08:22:32.442Z,1.84
2024-04-26T08:23:32.542Z,2.48
2024-04-26T08:24:34.579Z,3.15
2024-04-26T08:25:32.516Z,3.54
2024-04-26T08:26:32.600Z,4.37
2024-04-26T08:27:34.819Z,4.88
2024-04-26T08:28:32.538Z,4.89
2024-04-26T08:29:32.541Z,4.91
2024-04-26T08:30:32.541Z,4.89
2024-04-26T08:31:32.524Z,4.86
2024-04-26T08:32:32.601Z,4.79
2024-04-26T08:33:32.650Z,4.75
2024-04-26T08:34:33.706Z,4.75
2024-04-26T08:35:32.850Z,4.79
2024-04-26T08:36:32.537Z,4.87
2024-04-26T08:37:32.550Z,5.02
2024-04-26T08:38:32.655Z,5.32
2024-04-26T08:39:35.157Z,5.46
2024-04-26T08:40:32.551Z,5.35
2024-04-26T08:41:32.609Z,5.48
2024-04-26T08:42:32.546Z,5.53
2024-04-26T08:43:32.561Z,5.59
2024-04-26T08:44:32.611Z,5.52
2024-04-26T08:45:32.680Z,5.73
2024-04-26T08:46:37.769Z,5.88
2024-04-26T08:47:33.707Z,5.88
2024-04-26T08:48:32.666Z,5.92
2024-04-26T08:49:32.606Z,6.03
2024-04-26T08:50:32.615Z,6.17
2024-04-26T08:51:32.594Z,6.55
2024-04-26T08:52:32.566Z,6.67
2024-04-26T08:53:32.608Z,6.58
2024-04-26T08:54:32.580Z,6.49
2024-04-26T08:55:32.608Z,6.46
2024-04-26T08:56:32.657Z,6.31
2024-04-26T08:57:32.689Z,6.22
2024-04-26T08:58:32.731Z,6.12
2024-04-26T08:59:32.819Z,6.00
2024-04-26T09:00:32.890Z,5.95
2024-04-26T09:01:32.936Z,5.88
2024-04-26T09:02:32.959Z,5.88
2024-04-26T09:03:33.255Z,5.86
2024-04-26T09:04:33.063Z,5.79
2024-04-26T09:05:33.436Z,5.58
2024-04-26T09:06:33.090Z,5.43
2024-04-26T09:07:33.134Z,5.23
2024-04-26T09:08:33.240Z,5.17
2024-04-26T09:09:33.210Z,5.02
2024-04-26T09:10:33.247Z,5.05
2024-04-26T09:11:33.394Z,4.91
2024-04-26T09:12:34.553Z,4.81
2024-04-26T09:13:33.331Z,4.81
2024-04-26T09:14:33.373Z,4.71
2024-04-26T09:15:33.335Z,4.64
2024-04-26T09:16:33.338Z,4.52
2024-04-26T09:17:33.485Z,4.55
2024-04-26T09:18:33.623Z,4.42
2024-04-26T09:19:33.487Z,4.35
2024-04-26T09:20:33.371Z,4.22
2024-04-26T09:21:33.338Z,4.09
2024-04-26T09:22:33.342Z,3.88
2024-04-26T09:23:33.381Z,3.60
2024-04-26T09:24:33.358Z,3.44
2024-04-26T09:25:33.354Z,3.24
2024-04-26T09:26:33.394Z,3.02
2024-04-26T09:27:33.420Z,2.80
2024-04-26T09:28:33.343Z,2.60
2024-04-26T09:29:33.372Z,2.42
2024-04-26T09:30:33.355Z,2.26
2024-04-26T09:31:33.362Z,2.07
2024-04-26T09:32:40.207Z,1.86
2024-04-26T09:33:34.459Z,1.86
2024-04-26T09:34:33.564Z,1.77
2024-04-26T09:35:33.662Z,1.61
2024-04-26T09:36:33.461Z,1.45
2024-04-26T09:37:33.378Z,1.34
2024-04-26T09:38:33.431Z,1.17
2024-04-26T09:39:33.390Z,1.10
2024-04-26T09:40:33.390Z,1.01
2024-04-26T09:41:33.439Z,0.93
2024-04-26T09:42:33.395Z,0.84
2024-04-26T09:43:34.058Z,0.79
2024-04-26T09:44:33.489Z,0.74
2024-04-26T09:45:33.460Z,0.69
2024-04-26T09:46:34.060Z,0.64
2024-04-26T09:47:33.585Z,0.60
2024-04-26T09:48:33.781Z,0.57
2024-04-26T09:49:33.564Z,0.53
2024-04-26T09:50:33.450Z,0.50
2024-04-26T09:51:40.852Z,0.50
2024-04-26T09:52:34.441Z,0.49
2024-04-26T09:53:33.494Z,0.46
2024-04-26T09:54:33.438Z,0.44
2024-04-26T09:55:33.433Z,0.43
2024-04-26T09:56:34.093Z,0.38
2024-04-26T09:57:33.427Z,0.46
2024-04-26T09:58:33.448Z,0.50
2024-04-26T09:59:34.164Z,0.50
2024-04-26T10:00:33.444Z,0.50
2024-04-26T10:01:33.453Z,0.51
2024-04-26T10:02:34.637Z,0.48
2024-04-26T10:03:33.609Z,0.49
2024-04-26T10:04:33.746Z,0.50
2024-04-26T10:05:34.434Z,0.49
2024-04-26T10:06:33.549Z,0.48
2024-04-26T10:07:33.454Z,0.55
2024-04-26T10:08:33.479Z,0.60
2024-04-26T10:09:33.460Z,0.68
2024-04-26T10:10:33.445Z,0.75
2024-04-26T10:11:37.323Z,0.83
2024-04-26T10:12:33.485Z,0.83
2024-04-26T10:13:34.077Z,0.85
2024-04-26T10:14:33.519Z,0.88
2024-04-26T10:15:33.459Z,0.99
2024-04-26T10:16:33.458Z,1.08
2024-04-26T10:17:33.568Z,1.16
2024-04-26T10:18:33.625Z,1.22
2024-04-26T10:19:33.698Z,1.27
2024-04-26T10:20:33.495Z,1.27
2024-04-26T10:21:33.480Z,1.33
2024-04-26T10:22:33.469Z,1.37
2024-04-26T10:23:33.494Z,1.31
2024-04-26T10:24:33.474Z,1.30
2024-04-26T10:25:33.497Z,1.23
2024-04-26T10:26:33.521Z,1.23
2024-04-26T10:27:33.485Z,1.18
2024-04-26T10:28:33.483Z,1.16
2024-04-26T10:29:33.499Z,1.09
2024-04-26T10:30:33.493Z,1.06
2024-04-26T10:31:33.530Z,0.99
2024-04-26T10:32:33.717Z,0.92
2024-04-26T10:33:33.723Z,0.90
2024-04-26T10:34:33.958Z,0.83
2024-04-26T10:35:33.832Z,0.79
2024-04-26T10:36:33.837Z,0.75
2024-04-26T10:37:33.916Z,0.71
2024-04-26T10:38:33.994Z,0.67
2024-04-26T10:39:34.034Z,0.63
2024-04-26T10:40:34.949Z,0.62
2024-04-26T10:41:34.200Z,0.59
2024-04-26T10:42:34.221Z,0.56
2024-04-26T10:43:34.292Z,0.53
2024-04-26T10:44:34.424Z,0.50
2024-04-26T10:45:34.454Z,0.50
2024-04-26T10:46:34.493Z,0.51
2024-04-26T10:47:34.695Z,0.50
2024-04-26T10:48:34.981Z,0.50
2024-04-26T10:49:34.979Z,0.51
2024-04-26T10:50:34.812Z,0.50
2024-04-26T10:51:34.840Z,0.50
2024-04-26T10:52:34.985Z,0.50
2024-04-26T10:53:35.188Z,0.50
2024-04-26T10:54:35.052Z,0.51
2024-04-26T10:55:35.098Z,0.52
2024-04-26T10:56:35.264Z,0.51
2024-04-26T10:57:35.239Z,0.51
2024-04-26T10:58:35.314Z,0.50
2024-04-26T10:59:35.453Z,0.51
2024-04-26T11:00:35.466Z,0.50
2024-04-26T11:01:35.513Z,0.51
2024-04-26T11:02:35.648Z,0.50
2024-04-26T11:03:38.708Z,0.53
2024-04-26T11:04:36.065Z,0.52
2024-04-26T11:05:35.722Z,0.52
2024-04-26T11:06:36.196Z,0.50
2024-04-26T11:07:35.656Z,0.49
2024-04-26T11:08:35.671Z,0.49
2024-04-26T11:09:35.658Z,0.51
2024-04-26T11:10:35.656Z,0.51
2024-04-26T11:11:35.863Z,0.50
2024-04-26T11:12:35.711Z,0.50
2024-04-26T11:13:35.661Z,0.52
2024-04-26T11:14:35.710Z,0.53
2024-04-26T11:15:35.676Z,0.55
2024-04-26T11:16:35.687Z,0.54
2024-04-26T11:17:35.789Z,0.55
2024-04-26T11:18:35.742Z,0.55
2024-04-26T11:19:35.757Z,0.57
2024-04-26T11:20:35.719Z,0.57
2024-04-26T11:21:35.665Z,0.56
2024-04-26T11:22:35.669Z,0.55
2024-04-26T11:23:35.693Z,0.54
2024-04-26T11:24:35.690Z,0.56
2024-04-26T11:25:35.681Z,0.55
2024-04-26T11:26:35.723Z,0.55
2024-04-26T11:27:35.680Z,0.54
2024-04-26T11:28:35.685Z,0.55
2024-04-26T11:29:35.716Z,0.55
2024-04-26T11:30:35.698Z,0.53
2024-04-26T11:31:35.723Z,0.55
2024-04-26T11:32:35.848Z,0.56
2024-04-26T11:33:43.688Z,0.54
2024-04-26T11:34:37.013Z,0.54
2024-04-26T11:35:35.764Z,0.54
2024-04-26T11:36:35.766Z,0.55
2024-04-26T11:37:35.737Z,0.55
2024-04-26T11:38:35.781Z,0.57
2024-04-26T11:39:35.737Z,0.57
2024-04-26T11:40:35.745Z,0.55
2024-04-26T11:41:35.777Z,0.55
2024-04-26T11:42:35.757Z,0.55
2024-04-26T11:43:35.746Z,0.56
2024-04-26T11:44:35.866Z,0.53
2024-04-26T11:45:35.762Z,0.53
2024-04-26T11:46:35.748Z,0.53
2024-04-26T11:47:35.932Z,0.56
2024-04-26T11:48:35.942Z,0.54
2024-04-26T11:49:36.154Z,0.55
2024-04-26T11:50:35.801Z,0.53
2024-04-26T11:51:35.770Z,0.52
2024-04-26T11:52:35.750Z,0.54
2024-04-26T11:53:35.784Z,0.53
2024-04-26T11:54:35.760Z,0.51
2024-04-26T11:55:35.767Z,0.51
2024-04-26T11:56:35.795Z,0.51
2024-04-26T11:57:35.851Z,0.51
2024-04-26T11:58:35.756Z,0.50
2024-04-26T11:59:35.806Z,0.50
2024-04-26T12:00:35.878Z,0.51
2024-04-26T12:01:35.771Z,0.53
2024-04-26T12:02:35.853Z,0.52
2024-04-26T12:03:35.871Z,0.52
2024-04-26T12:04:35.890Z,0.52
2024-04-26T12:05:35.851Z,0.51
2024-04-26T12:06:36.038Z,0.52
2024-04-26T12:07:35.798Z,0.53
2024-04-26T12:08:41.800Z,0.53
2024-04-26T12:09:36.880Z,0.51
2024-04-26T12:10:35.800Z,0.51
2024-04-26T12:11:35.832Z,0.50
2024-04-26T12:12:35.815Z,0.51
2024-04-26T12:13:35.790Z,0.52
2024-04-26T12:14:35.809Z,0.51
2024-04-26T12:15:35.868Z,0.51
2024-04-26T12:16:35.805Z,0.51
2024-04-26T12:17:35.866Z,0.53
2024-04-26T12:18:35.863Z,0.50
2024-04-26T12:19:35.792Z,0.54
2024-04-26T12:20:35.895Z,0.53
2024-04-26T12:21:35.790Z,0.52
2024-04-26T12:22:35.790Z,0.51
2024-04-26T12:23:35.859Z,0.50
2024-04-26T12:24:35.798Z,0.50
2024-04-26T12:25:35.799Z,0.51
2024-04-26T12:26:35.834Z,0.51
2024-04-26T12:27:35.794Z,0.50
2024-04-26T12:28:35.796Z,0.50
2024-04-26T12:29:35.832Z,0.51
2024-04-26T12:30:35.825Z,0.52
2024-04-26T12:31:35.829Z,0.51
2024-04-26T12:32:36.052Z,0.51
2024-04-26T12:33:35.915Z,0.50
2024-04-26T12:34:35.969Z,0.52
2024-04-26T12:35:35.913Z,0.49
2024-04-26T12:36:35.856Z,0.51
2024-04-26T12:37:35.820Z,0.51
2024-04-26T12:38:35.928Z,0.52
2024-04-26T12:39:35.866Z,0.54
2024-04-26T12:40:35.888Z,0.52
2024-04-26T12:41:35.942Z,0.52
2024-04-26T12:42:35.924Z,0.51
2024-04-26T12:43:35.966Z,0.50
2024-04-26T12:44:35.998Z,0.51
2024-04-26T12:45:36.033Z,0.50
2024-04-26T12:46:36.043Z,0.50
2024-04-26T12:47:36.273Z,0.52
2024-04-26T12:48:36.214Z,0.53
2024-04-26T12:49:36.181Z,0.52
2024-04-26T12:50:36.187Z,0.54
2024-04-26T12:51:36.168Z,0.54
2024-04-26T12:52:36.170Z,0.55
2024-04-26T12:53:36.373Z,0.56
2024-04-26T12:54:36.210Z,0.57
2024-04-26T12:55:36.258Z,0.56
2024-04-26T12:56:36.303Z,0.58
2024-04-26T12:57:36.297Z,0.57
2024-04-26T12:58:36.321Z,0.59
2024-04-26T12:59:36.404Z,0.59
2024-04-26T13:00:36.400Z,0.60
2024-04-26T13:01:36.412Z,0.60
2024-04-26T13:02:36.488Z,0.61
2024-04-26T13:03:36.604Z,0.57
2024-04-26T13:04:36.494Z,0.57
2024-04-26T13:05:36.550Z,0.55
2024-04-26T13:06:36.572Z,0.54
2024-04-26T13:07:36.585Z,0.53
2024-04-26T13:08:36.615Z,0.54
2024-04-26T13:09:38.355Z,0.54
2024-04-26T13:10:36.730Z,0.58
2024-04-26T13:11:36.822Z,0.58
2024-04-26T13:12:39.458Z,0.59
2024-04-26T13:13:36.798Z,0.56
2024-04-26T13:14:36.827Z,0.56
2024-04-26T13:15:36.785Z,0.58
2024-04-26T13:16:36.788Z,0.54
2024-04-26T13:17:36.986Z,0.55
2024-04-26T13:18:36.934Z,0.54